Time;durP1;ratioP1;P1;durP2;ratioP2;P2;SDS_P1;SDS_P2;PMS_P1;PMS_P2;Temp;Humidity;BMP_temperature;BMP_pressure;BME280_temperature;BME280_humidity;BME280_pressure;Samples;Min_cycle;Max_cycle;Signal;HPM_P1;HPM_P2
2022/01/23 00:04:36;;;;;;;36.83;25.35;;;;;;;3.87;89.26;103483.84;5083599;28;20069;-75
2022/01/23 00:07:07;;;;;;;48.47;28.00;;;;;;;3.85;89.49;103481.16;5092303;28;20434;-75
2022/01/23 00:09:33;;;;;;;;;;;;;;;3.91;89.48;103488.41;5071151;28;20040;-76
2022/01/23 00:12:04;;;;;;;35.67;24.60;;;;;;;3.84;89.37;103481.97;5052576;28;19912;-75
2022/01/23 00:17:18;;;;;;;39.15;26.23;;;;;;;3.86;89.79;103477.75;5047101;28;20040;-75
2022/01/23 00:19:45;;;;;;;39.13;26.33;;;;;;;3.83;89.63;103474.97;5035840;28;20060;-76
2022/01/23 00:22:12;;;;;;;39.88;28.02;;;;;;;3.83;89.26;103471.50;5045896;28;20229;-76
2022/01/23 00:30:27;;;;;;;42.47;28.63;;;;;;;3.80;89.52;103470.50;5054130;28;20051;-75
2022/01/23 00:32:54;;;;;;;35.53;26.67;;;;;;;3.81;89.79;103469.72;5046159;28;20032;-76
2022/01/23 00:35:20;;;;;;;45.17;29.70;;;;;;;3.81;89.34;103467.13;5055442;28;20535;-75
2022/01/23 00:37:46;;;;;;;43.50;28.17;;;;;;;3.80;89.45;103467.91;5038764;28;20070;-76
2022/01/23 00:40:12;;;;;;;35.50;28.00;;;;;;;3.81;89.33;103474.00;5038000;28;20067;-75
2022/01/23 00:42:38;;;;;;;38.47;27.48;;;;;;;3.81;89.28;103469.72;5020544;28;20525;-76
2022/01/23 00:45:53;;;;;;;39.28;27.45;;;;;;;3.79;89.72;103471.34;5023429;28;20074;-76
2022/01/23 00:47:59;;;;;;;42.08;27.73;;;;;;;3.79;89.76;103468.75;5100598;28;20078;-77
2022/01/23 00:50:25;;;;;;;;;;;;;;;3.86;89.62;103461.31;5080118;28;20036;-76
2022/01/23 00:52:52;;;;;;;39.63;27.85;;;;;;;3.81;89.53;103466.22;5114040;27;20014;-76
2022/01/23 00:55:18;;;;;;;49.67;29.08;;;;;;;3.80;89.22;103457.53;5077488;28;20517;-76
2022/01/23 00:57:43;;;;;;;42.97;27.02;;;;;;;3.80;89.71;103462.72;5079458;28;20039;-76
2022/01/23 01:00:09;;;;;;;43.28;28.63;;;;;;;3.77;89.90;103457.38;5063002;28;20066;-75
2022/01/23 01:02:52;;;;;;;46.80;28.20;;;;;;;3.78;89.73;103453.97;5078679;28;20064;-75
2022/01/23 01:05:40;;;;;;;39.80;28.60;;;;;;;3.79;89.52;103455.78;5113956;28;20027;-76
2022/01/23 01:08:06;;;;;;;33.05;25.48;;;;;;;3.77;89.38;103459.06;5081504;28;20039;-75
2022/01/23 01:10:59;;;;;;;39.90;26.70;;;;;;;3.76;89.91;103465.94;5078857;28;20163;-75
2022/01/23 01:16:52;;;;;;;37.45;26.42;;;;;;;3.75;89.45;103458.97;5091476;28;20055;-76
2022/01/23 01:30:34;;;;;;;38.78;24.90;;;;;;;3.72;89.90;103468.28;5135020;27;20041;-75
2022/01/23 01:38:32;;;;;;;41.92;27.80;;;;;;;3.69;89.78;103463.78;5050779;28;20052;-73
2022/01/23 01:40:58;;;;;;;66.47;36.88;;;;;;;3.67;89.83;103469.72;5054103;28;20035;-75
2022/01/23 01:43:23;;;;;;;46.78;30.73;;;;;;;3.66;89.56;103467.91;5095261;28;20024;-75
2022/01/23 01:45:49;;;;;;;57.63;34.33;;;;;;;3.64;89.57;103475.59;5059090;28;20036;-75
2022/01/23 01:48:37;;;;;;;50.08;30.23;;;;;;;3.64;89.81;103480.78;5089384;28;20455;-74
2022/01/23 01:51:37;;;;;;;35.30;26.35;;;;;;;3.65;89.25;103482.59;5108167;28;20074;-74
2022/01/23 01:54:19;;;;;;;55.35;27.25;;;;;;;3.65;89.51;103482.59;5073845;28;20024;-75
2022/01/23 01:57:05;;;;;;;33.22;26.13;;;;;;;3.63;90.05;103485.09;5059117;28;20156;-74
2022/01/23 02:10:50;;;;;;;37.17;27.48;;;;;;;3.60;90.28;103476.22;5091608;28;20056;-74
2022/01/23 02:13:35;;;;;;;85.25;47.67;;;;;;;3.60;90.08;103460.66;5072160;28;20032;-75
2022/01/23 02:51:45;;;;;;;39.10;24.85;;;;;;;3.60;90.46;103443.41;5080565;28;20054;-75
2022/01/23 02:56:45;;;;;;;33.38;23.98;;;;;;;3.59;90.04;103440.72;5057483;28;20043;-76
2022/01/23 03:02:11;;;;;;;40.38;26.50;;;;;;;3.60;90.27;103437.34;5078819;28;20040;-71
2022/01/23 03:04:41;;;;;;;52.35;27.92;;;;;;;3.58;90.56;103431.19;5071969;28;20029;-71
2022/01/23 03:07:30;;;;;;;39.00;27.40;;;;;;;3.58;89.95;103428.59;5054127;28;20032;-71
2022/01/23 03:10:12;;;;;;;44.88;30.15;;;;;;;3.56;90.21;103435.34;5052545;28;20036;-72
2022/01/23 03:15:56;;;;;;;41.78;30.70;;;;;;;3.53;90.20;103436.06;5059134;28;20048;-71
2022/01/23 03:24:36;;;;;;;89.43;48.28;;;;;;;3.53;90.24;103445.56;4998263;28;20026;-71
2022/01/23 03:30:28;;;;;;;72.32;41.08;;;;;;;3.52;90.19;103444.66;5009228;28;20525;-71
2022/01/23 03:32:38;;;;;;;64.80;40.17;;;;;;;3.53;90.26;103442.97;4988493;28;20057;-71
2022/01/23 03:35:11;;;;;;;66.75;39.53;;;;;;;3.52;90.35;103442.09;5012317;28;20052;-71
2022/01/23 03:37:38;;;;;;;53.15;39.55;;;;;;;3.51;90.72;103447.19;5091086;28;20533;-71
2022/01/23 03:40:05;;;;;;;62.92;38.88;;;;;;;3.53;90.52;103450.75;5073240;28;20089;-71
2022/01/23 03:42:39;;;;;;;56.50;34.95;;;;;;;3.52;90.14;103438.56;5072118;28;20471;-71
2022/01/23 03:47:39;;;;;;;37.58;28.58;;;;;;;3.52;90.17;103443.75;5079609;28;20079;-71
2022/01/23 03:50:08;;;;;;;40.67;28.60;;;;;;;3.51;90.63;103457.56;5077045;28;20444;-71
2022/01/23 03:52:37;;;;;;;42.25;25.05;;;;;;;3.49;90.34;103460.00;5093097;28;20035;-71
2022/01/23 03:55:06;;;;;;;35.40;24.20;;;;;;;3.49;90.32;103464.31;5093537;28;20118;-71
2022/01/23 03:57:45;;;;;;;41.50;27.00;;;;;;;3.50;90.78;103460.94;5093170;28;20035;-72
2022/01/23 04:00:42;;;;;;;31.48;24.40;;;;;;;3.48;90.78;103460.84;5093006;28;20031;-71
2022/01/23 04:03:18;;;;;;;32.95;21.52;;;;;;;3.51;90.55;103465.31;5111385;28;20028;-71
2022/01/23 04:05:52;;;;;;;35.55;25.30;;;;;;;3.52;90.29;103464.50;5093413;28;20511;-71
2022/01/23 04:08:51;;;;;;;33.13;24.60;;;;;;;3.54;90.67;103463.78;5093894;28;20031;-71
2022/01/23 04:11:22;;;;;;;38.88;24.73;;;;;;;3.54;90.57;103471.56;5093185;28;20031;-70
2022/01/23 04:14:02;;;;;;;45.22;25.88;;;;;;;3.54;90.37;103473.28;5093556;28;20043;-71
2022/01/23 04:33:48;;;;;;;29.85;21.85;;;;;;;3.55;90.51;103464.69;5100258;28;20080;-71
2022/01/23 05:06:35;;;;;;;45.13;24.55;;;;;;;3.54;90.72;103474.16;5093334;27;20039;-71
2022/01/23 05:09:04;;;;;;;36.75;23.38;;;;;;;3.54;90.38;103473.28;5059715;28;20059;-71
2022/01/23 05:11:30;;;;;;;35.03;22.50;;;;;;;3.52;91.10;103468.00;5092499;28;20027;-71
2022/01/23 05:13:55;;;;;;;35.38;22.73;;;;;;;3.53;90.87;103471.47;5062350;28;20537;-71
2022/01/23 05:16:21;;;;;;;37.20;23.90;;;;;;;3.52;90.44;103465.41;5077627;28;20031;-71
2022/01/23 05:18:46;;;;;;;36.13;23.75;;;;;;;3.53;90.98;103466.28;5078946;28;20027;-71
2022/01/23 05:21:45;;;;;;;35.60;23.15;;;;;;;3.54;90.57;103462.91;5095267;28;20062;-72
2022/01/23 05:24:04;;;;;;;28.45;21.98;;;;;;;3.55;90.40;103464.69;5086491;28;20452;-72
2022/01/23 05:26:31;;;;;;;31.60;21.92;;;;;;;3.55;90.91;103469.84;5074831;28;20207;-71
2022/01/23 05:28:56;;;;;;;37.08;22.63;;;;;;;3.54;90.70;103475.88;5058597;28;20024;-71
2022/01/23 05:31:22;;;;;;;47.47;23.75;;;;;;;3.53;90.81;103468.88;5074313;28;20035;-71
2022/01/23 05:33:47;;;;;;;32.17;23.08;;;;;;;3.52;90.19;103467.09;5078928;28;20050;-72
2022/01/23 05:36:13;;;;;;;35.15;24.08;;;;;;;3.53;90.71;103474.06;5060919;28;20425;-71
2022/01/23 05:38:39;;;;;;;30.98;21.23;;;;;;;3.50;90.57;103477.38;5078800;28;20035;-71
2022/01/23 05:41:04;;;;;;;35.67;23.08;;;;;;;3.52;90.78;103478.38;5047127;28;20400;-71
2022/01/23 05:43:30;;;;;;;35.17;23.10;;;;;;;3.51;91.28;103479.16;5042354;28;20051;-71
2022/01/23 05:45:58;;;;;;;34.55;24.65;;;;;;;3.51;90.83;103478.28;5067478;28;20028;-71
2022/01/23 05:48:23;;;;;;;33.60;22.55;;;;;;;3.50;91.08;103476.50;5046655;28;20057;-71
2022/01/23 05:50:49;;;;;;;39.35;24.02;;;;;;;3.47;90.84;103480.66;5054627;28;20036;-71
2022/01/23 05:53:14;;;;;;;39.55;23.42;;;;;;;3.48;90.73;103471.22;5074708;28;20377;-71
2022/01/23 05:55:40;;;;;;;35.13;23.30;;;;;;;3.47;91.18;103467.72;5090781;28;20036;-71
2022/01/23 05:58:05;;;;;;;34.28;22.63;;;;;;;3.50;91.05;103468.72;5091639;28;20448;-72
2022/01/23 06:00:31;;;;;;;28.85;21.88;;;;;;;3.50;91.15;103463.53;5058386;28;20028;-71
2022/01/23 06:02:59;;;;;;;36.58;23.58;;;;;;;3.51;91.45;103462.72;5074329;28;20031;-71
2022/01/23 06:05:24;;;;;;;32.55;23.02;;;;;;;3.51;90.82;103455.84;5091148;28;20069;-72
2022/01/23 06:07:51;;;;;;;35.25;23.80;;;;;;;3.52;91.08;103461.91;5073989;28;20392;-71
2022/01/23 06:10:23;;;;;;;35.20;23.20;;;;;;;3.51;90.96;103458.44;5069537;28;20033;-72
2022/01/23 06:12:49;;;;;;;42.38;24.80;;;;;;;3.52;90.73;103469.69;5061848;28;20040;-71
2022/01/23 06:15:15;;;;;;;31.50;23.95;;;;;;;3.52;91.20;103470.59;5078012;28;20073;-71
2022/01/23 06:17:42;;;;;;;34.42;24.67;;;;;;;3.51;91.13;103473.97;5060288;28;20033;-71
2022/01/23 06:20:09;;;;;;;37.03;23.52;;;;;;;3.51;91.12;103478.28;5059074;28;20105;-71
2022/01/23 06:22:35;;;;;;;32.45;22.45;;;;;;;3.51;90.58;103480.88;5091239;28;20020;-71
2022/01/23 06:25:00;;;;;;;39.25;25.83;;;;;;;3.49;91.25;103482.47;5073990;28;20038;-71
2022/01/23 06:27:30;;;;;;;35.00;23.17;;;;;;;3.50;90.93;103479.09;5071077;28;20020;-71
2022/01/23 06:29:55;;;;;;;34.38;22.63;;;;;;;3.49;90.85;103479.88;5054897;28;20685;-71
2022/01/23 06:32:21;;;;;;;37.25;23.90;;;;;;;3.47;90.76;103483.25;5057546;28;20131;-71
2022/01/23 06:34:47;;;;;;;28.83;21.95;;;;;;;3.48;91.09;103479.00;5074154;28;20044;-72
2022/01/23 06:37:13;;;;;;;31.50;23.95;;;;;;;3.47;91.05;103480.66;5057277;28;20546;-71
2022/01/23 06:39:38;;;;;;;37.95;25.25;;;;;;;3.51;90.96;103488.66;5088348;28;20031;-71
2022/01/23 06:42:05;;;;;;;33.85;22.40;;;;;;;3.49;91.07;103487.66;5090891;28;20020;-71
2022/01/23 06:44:30;;;;;;;35.78;23.67;;;;;;;3.50;91.00;103487.75;5073968;28;20330;-71
2022/01/23 06:46:56;;;;;;;38.33;24.75;;;;;;;3.50;90.53;103489.44;5073588;28;20078;-71
2022/01/23 06:49:21;;;;;;;32.95;22.55;;;;;;;3.50;91.11;103489.44;5089755;28;20074;-71
2022/01/23 06:51:48;;;;;;;35.63;23.60;;;;;;;3.51;90.74;103493.84;5057051;28;20024;-72
2022/01/23 06:54:14;;;;;;;41.67;24.65;;;;;;;3.51;91.09;103493.84;5057822;28;20070;-71
2022/01/23 06:56:40;;;;;;;38.72;24.85;;;;;;;3.49;90.68;103495.44;5053209;28;20036;-71
2022/01/23 06:59:06;;;;;;;40.63;26.35;;;;;;;3.52;90.70;103500.78;5083274;28;20114;-71
2022/01/23 07:01:31;;;;;;;43.78;23.67;;;;;;;3.50;91.07;103507.59;5088931;28;20122;-71
2022/01/23 07:03:57;;;;;;;34.33;21.75;;;;;;;3.50;91.12;103508.47;5057261;28;20032;-71
2022/01/23 07:06:22;;;;;;;34.63;23.13;;;;;;;3.51;90.58;103504.22;5072984;28;20401;-72
2022/01/23 07:08:48;;;;;;;32.60;22.33;;;;;;;3.49;90.75;103510.97;5056741;28;20555;-71
2022/01/23 07:11:13;;;;;;;38.70;25.05;;;;;;;3.50;91.28;103510.19;5064833;28;20455;-71
2022/01/23 07:13:39;;;;;;;39.63;25.48;;;;;;;3.49;90.85;103518.75;5070800;28;20395;-72
2022/01/23 07:16:06;;;;;;;35.80;24.05;;;;;;;3.47;90.86;103509.19;5055432;28;20488;-71
2022/01/23 07:18:32;;;;;;;38.80;22.33;;;;;;;3.47;91.07;103516.09;5057830;28;20375;-71
2022/01/23 07:20:58;;;;;;;44.72;24.40;;;;;;;3.47;90.96;103523.84;5082436;28;20034;-72
2022/01/23 07:23:24;;;;;;;38.28;24.98;;;;;;;3.47;91.39;103519.56;5072465;28;20028;-71
2022/01/23 07:25:50;;;;;;;37.22;23.90;;;;;;;3.51;91.34;103524.94;5070867;28;20107;-71
2022/01/23 07:28:21;;;;;;;34.83;23.15;;;;;;;3.51;91.53;103524.94;5073780;28;20074;-71
2022/01/23 07:30:51;;;;;;;34.00;23.73;;;;;;;3.50;90.77;103530.94;5067431;28;20036;-71
2022/01/23 07:33:20;;;;;;;30.48;23.92;;;;;;;3.52;91.04;103539.69;5087149;28;20032;-71
2022/01/23 07:35:47;;;;;;;37.50;22.85;;;;;;;3.50;91.50;103533.53;5069228;28;20040;-71
2022/01/23 07:38:16;;;;;;;33.95;23.20;;;;;;;3.50;91.16;103539.59;5077447;28;20863;-71
2022/01/23 07:40:44;;;;;;;33.78;23.15;;;;;;;3.52;91.46;103547.47;5079355;28;20069;-71
2022/01/23 07:43:09;;;;;;;41.35;24.15;;;;;;;3.53;90.87;103541.47;5089147;28;20028;-72
2022/01/23 07:45:35;;;;;;;35.15;22.85;;;;;;;3.54;91.20;103540.69;5072451;28;20039;-71
2022/01/23 07:48:03;;;;;;;29.33;21.10;;;;;;;3.54;91.50;103551.06;5058634;28;20063;-72
2022/01/23 07:50:28;;;;;;;32.83;22.60;;;;;;;3.55;91.40;103547.66;5071754;28;20032;-72
2022/01/23 07:52:54;;;;;;;30.65;21.73;;;;;;;3.57;91.57;103556.44;5045443;28;20503;-72
2022/01/23 07:55:21;;;;;;;30.75;23.08;;;;;;;3.59;91.23;103554.81;5072502;28;20085;-72
2022/01/23 07:57:46;;;;;;;29.50;21.17;;;;;;;3.57;91.12;103549.53;5069418;28;20036;-72
2022/01/23 08:00:13;;;;;;;33.20;21.05;;;;;;;3.59;91.58;103553.13;5068120;28;20131;-72
2022/01/23 08:02:40;;;;;;;31.83;22.67;;;;;;;3.61;91.38;103554.09;5062854;28;20033;-72
2022/01/23 08:05:09;;;;;;;33.92;24.23;;;;;;;3.61;91.79;103553.22;5089836;28;20469;-71
2022/01/23 08:07:38;;;;;;;34.53;23.77;;;;;;;3.64;91.22;103553.41;5057810;28;20040;-71
2022/01/23 08:10:08;;;;;;;31.65;22.85;;;;;;;3.66;91.55;103556.97;5062274;28;20341;-72
2022/01/23 08:12:39;;;;;;;35.40;23.75;;;;;;;3.68;91.36;103555.38;5088421;28;20040;-71
2022/01/23 08:15:05;;;;;;;31.58;22.67;;;;;;;3.69;91.33;103564.94;5085292;28;20033;-71
2022/01/23 08:17:31;;;;;;;34.80;23.65;;;;;;;3.72;91.46;103562.56;5084806;28;20035;-71
2022/01/23 08:20:00;;;;;;;34.65;24.45;;;;;;;3.71;91.60;103565.94;5064475;28;20047;-72
2022/01/23 08:22:27;;;;;;;35.17;24.42;;;;;;;3.72;91.00;103567.75;5070910;28;20052;-71
2022/01/23 08:24:55;;;;;;;35.22;22.95;;;;;;;3.75;91.45;103559.22;5090949;28;20400;-71
2022/01/23 08:27:21;;;;;;;35.30;24.73;;;;;;;3.78;90.91;103562.03;5080235;28;20082;-72
2022/01/23 08:29:47;;;;;;;36.15;26.15;;;;;;;3.80;91.47;103566.47;5071666;28;20062;-71
2022/01/23 08:32:13;;;;;;;31.00;24.95;;;;;;;3.83;91.25;103570.06;5086495;28;20476;-71
2022/01/23 08:34:39;;;;;;;37.90;24.95;;;;;;;3.86;91.42;103578.03;5076219;28;20086;-71
2022/01/23 08:37:07;;;;;;;38.17;24.60;;;;;;;3.88;91.46;103569.56;5087236;28;20032;-72
2022/01/23 08:39:36;;;;;;;30.98;22.70;;;;;;;3.94;91.18;103574.22;5091018;28;20633;-72
2022/01/23 08:42:08;;;;;;;35.85;25.83;;;;;;;3.97;90.95;103576.97;5084310;28;20043;-71
2022/01/23 08:44:34;;;;;;;37.85;25.70;;;;;;;3.96;90.60;103581.25;5076481;28;20032;-71
2022/01/23 08:47:05;;;;;;;41.97;28.25;;;;;;;3.97;90.50;103585.66;5063650;28;20020;-71
2022/01/23 08:49:30;;;;;;;41.38;26.83;;;;;;;3.99;90.89;103583.16;5093251;28;20039;-71
2022/01/23 08:51:58;;;;;;;40.00;26.42;;;;;;;4.00;90.55;103584.94;5051632;28;20038;-72
2022/01/23 08:54:25;;;;;;;41.42;28.38;;;;;;;4.00;90.64;103590.13;5094527;28;20410;-72
2022/01/23 08:56:51;;;;;;;43.90;28.35;;;;;;;4.01;90.37;103585.81;5076083;28;20550;-71
2022/01/23 08:59:17;;;;;;;42.88;29.08;;;;;;;3.98;90.26;103590.03;5057256;28;20081;-72
2022/01/23 09:01:43;;;;;;;38.70;28.73;;;;;;;4.00;90.63;103584.94;5076152;28;20041;-71
2022/01/23 09:04:11;;;;;;;40.70;28.10;;;;;;;4.03;90.80;103586.84;5078781;28;20039;-71
2022/01/23 09:06:36;;;;;;;39.72;28.63;;;;;;;4.07;90.45;103588.81;5087267;28;20046;-71
2022/01/23 09:09:05;;;;;;;41.78;27.63;;;;;;;4.10;90.82;103596.78;5071208;28;20467;-72
2022/01/23 09:14:10;;;;;;;46.97;31.00;;;;;;;4.15;90.40;103590.13;5074748;28;20036;-71
2022/01/23 09:16:41;;;;;;;45.03;29.10;;;;;;;4.19;90.21;103583.44;5075522;28;20059;-71
2022/01/23 09:19:08;;;;;;;37.80;28.35;;;;;;;4.22;90.34;103583.63;5082302;28;20443;-73
2022/01/23 09:21:34;;;;;;;45.88;30.70;;;;;;;4.24;90.34;103584.59;5076744;28;20035;-71
2022/01/23 09:23:59;;;;;;;40.17;29.10;;;;;;;4.26;89.77;103580.41;5078789;28;20381;-72
2022/01/23 09:26:25;;;;;;;44.75;29.35;;;;;;;4.28;90.12;103581.38;5092903;28;20080;-71
2022/01/23 09:28:55;;;;;;;48.38;28.88;;;;;;;4.29;89.55;103586.66;5075366;28;20063;-71
2022/01/23 09:31:48;;;;;;;45.80;30.08;;;;;;;4.32;89.32;103594.63;5087809;28;20040;-71
2022/01/23 09:34:18;;;;;;;43.05;29.98;;;;;;;4.36;89.91;103593.09;5087960;28;20020;-73
2022/01/23 09:36:43;;;;;;;46.22;32.45;;;;;;;4.39;89.70;103588.09;5088149;28;20471;-71
2022/01/23 09:39:10;;;;;;;39.67;28.80;;;;;;;4.44;89.73;103586.66;5078486;28;20031;-72
2022/01/23 09:41:41;;;;;;;46.83;30.27;;;;;;;4.46;89.77;103587.63;5061427;28;20093;-72
2022/01/23 09:44:08;;;;;;;60.38;30.67;;;;;;;4.52;89.92;103597.47;5089133;28;20491;-71
2022/01/23 09:46:33;;;;;;;45.00;29.98;;;;;;;4.53;89.63;103596.69;5087212;27;20054;-71
2022/01/23 09:49:00;;;;;;;45.78;32.53;;;;;;;4.59;89.29;103609.13;5053688;28;20080;-72
2022/01/23 09:51:25;;;;;;;52.78;32.28;;;;;;;4.58;88.80;103602.13;5067831;28;20038;-71
2022/01/23 09:53:57;;;;;;;49.78;32.85;;;;;;;4.63;89.36;103600.69;5058474;28;20383;-72
2022/01/23 09:56:28;;;;;;;49.72;33.13;;;;;;;4.66;89.02;103603.47;5057361;28;20032;-71
2022/01/23 09:58:54;;;;;;;45.67;32.65;;;;;;;4.71;89.32;103603.72;5083068;28;20036;-71
2022/01/23 10:01:22;;;;;;;48.53;32.90;;;;;;;4.74;88.96;103603.91;5072781;28;20032;-71
2022/01/23 10:03:49;;;;;;;48.88;32.90;;;;;;;4.80;88.88;103599.94;5072531;28;20093;-71
2022/01/23 10:06:15;;;;;;;55.22;34.60;;;;;;;4.82;88.79;103602.63;5081578;28;20035;-71
2022/01/23 10:08:41;;;;;;;52.70;34.15;;;;;;;4.86;88.54;103605.47;5063806;28;20516;-72
2022/01/23 10:11:11;;;;;;;135.55;75.18;;;;;;;4.88;88.31;103604.69;5077561;28;20054;-72
2022/01/23 10:13:37;;;;;;;72.85;45.22;;;;;;;4.91;88.55;103603.13;5082394;28;20543;-71
2022/01/23 10:16:06;;;;;;;62.28;36.88;;;;;;;4.96;88.73;103600.81;5069119;28;20085;-72
2022/01/23 10:18:31;;;;;;;55.55;35.88;;;;;;;5.02;88.41;103601.16;5081183;28;20020;-71
2022/01/23 10:20:57;;;;;;;54.40;37.03;;;;;;;5.08;88.19;103595.41;5083155;28;20027;-72
2022/01/23 10:23:24;;;;;;;59.72;37.88;;;;;;;5.09;88.22;103605.88;5081253;28;20023;-72
2022/01/23 10:25:51;;;;;;;62.90;40.22;;;;;;;5.16;88.53;103604.53;5063616;28;20024;-71
2022/01/23 10:28:20;;;;;;;55.10;36.50;;;;;;;5.19;88.25;103600.38;5071080;28;20039;-72
2022/01/23 10:30:56;;;;;;;56.22;37.67;;;;;;;5.23;88.29;103595.34;5088591;28;20027;-71
2022/01/23 10:33:31;;;;;;;53.75;37.65;;;;;;;5.25;87.98;103592.00;5084748;28;20024;-71
2022/01/23 10:36:05;;;;;;;53.38;36.35;;;;;;;5.30;88.01;103597.47;5084105;28;20391;-72
2022/01/23 10:38:31;;;;;;;54.47;35.75;;;;;;;5.25;86.33;103598.94;5084983;28;20115;-72
2022/01/23 10:49:54;;;;;;;63.67;36.83;;;;;;;5.48;87.29;103595.84;5100403;28;20051;-71
2022/01/23 10:52:38;;;;;;;53.55;35.08;;;;;;;5.57;87.15;103598.03;5083750;28;20131;-72
2022/01/23 10:55:27;;;;;;;52.47;34.40;;;;;;;5.61;87.51;103605.19;5088302;28;20020;-72
2022/01/23 10:57:58;;;;;;;56.08;34.33;;;;;;;5.62;86.85;103595.72;5083090;28;20390;-72
2022/01/23 11:00:34;;;;;;;52.05;33.75;;;;;;;5.63;87.03;103582.78;5084851;28;20031;-72
2022/01/23 11:03:11;;;;;;;56.70;35.20;;;;;;;5.67;87.19;103589.03;5091574;28;20031;-72
2022/01/23 11:05:41;;;;;;;47.53;34.60;;;;;;;5.65;86.58;103595.88;5104230;28;20036;-71
2022/01/23 11:08:27;;;;;;;54.53;36.05;;;;;;;5.69;86.05;103592.63;5103573;27;20111;-71
2022/01/23 11:11:04;;;;;;;52.83;34.35;;;;;;;5.71;86.38;103590.97;5088345;28;20463;-72
2022/01/23 11:19:24;;;;;;;51.42;33.85;;;;;;;5.76;86.72;103578.19;5104358;28;20402;-71
2022/01/23 11:21:52;;;;;;;51.60;36.28;;;;;;;5.80;86.22;103577.56;5074786;28;20035;-72
2022/01/23 11:24:19;;;;;;;51.83;35.88;;;;;;;5.75;85.28;103577.31;5088242;28;20055;-73
2022/01/23 11:26:44;;;;;;;49.65;35.10;;;;;;;5.82;86.13;103579.44;5086169;28;20060;-72
2022/01/23 11:29:17;;;;;;;50.92;35.65;;;;;;;5.85;87.13;103568.28;5082680;28;20108;-71
2022/01/23 11:31:43;;;;;;;51.30;34.22;;;;;;;5.87;86.32;103571.84;5086898;28;20031;-72
2022/01/23 11:34:12;;;;;;;48.95;33.40;;;;;;;5.88;86.31;103569.31;5088343;28;20027;-72
2022/01/23 11:36:38;;;;;;;49.70;34.20;;;;;;;5.90;86.08;103565.09;5094017;28;20031;-72
2022/01/23 11:39:16;;;;;;;59.97;36.42;;;;;;;5.95;86.35;103567.94;5062626;28;20036;-71
2022/01/23 11:56:32;;;;;;;51.53;32.20;;;;;;;6.10;86.65;103559.16;5086056;28;20518;-71
2022/01/23 11:59:15;;;;;;;49.05;33.17;;;;;;;6.18;86.61;103553.50;5089954;28;20034;-72
2022/01/23 12:01:42;;;;;;;48.35;33.70;;;;;;;6.14;85.26;103548.97;5093101;28;20394;-72
2022/01/23 12:04:08;;;;;;;63.30;37.70;;;;;;;6.19;86.37;103554.38;5073624;28;20038;-72
2022/01/23 12:06:35;;;;;;;54.80;36.28;;;;;;;6.24;86.50;103559.00;5089818;28;20035;-72
2022/01/23 12:09:10;;;;;;;44.90;32.20;;;;;;;6.30;85.41;103547.13;5079060;28;20020;-72
2022/01/23 12:11:53;;;;;;;48.58;34.25;;;;;;;6.35;85.68;103549.16;5090731;28;20027;-72
2022/01/23 12:16:51;;;;;;;52.15;34.88;;;;;;;6.47;85.18;103548.84;5102783;27;20028;-71
2022/01/23 12:19:23;;;;;;;51.33;34.03;;;;;;;6.52;85.38;103543.84;5091438;28;20027;-72
2022/01/23 12:21:52;;;;;;;43.40;29.10;;;;;;;6.57;85.70;103543.25;5086515;28;20067;-72
2022/01/23 12:24:21;;;;;;;44.55;29.63;;;;;;;6.57;84.85;103526.75;5074385;28;20023;-72
2022/01/23 12:26:47;;;;;;;47.35;31.63;;;;;;;6.61;85.01;103540.78;5085038;28;20509;-72
2022/01/23 12:29:18;;;;;;;44.85;28.63;;;;;;;6.75;85.14;103521.50;5073376;28;20028;-72
2022/01/23 12:31:45;;;;;;;48.08;31.25;;;;;;;6.70;84.20;103528.22;5089151;28;20487;-72
2022/01/23 12:34:10;;;;;;;39.47;27.27;;;;;;;6.75;83.57;103526.69;5087262;28;20023;-72
2022/01/23 12:36:40;;;;;;;55.00;35.10;;;;;;;6.72;82.98;103526.56;5075151;28;20378;-72
2022/01/23 12:39:08;;;;;;;51.50;34.53;;;;;;;6.74;82.77;103530.16;5092800;28;20036;-72
2022/01/23 12:41:36;;;;;;;59.30;38.05;;;;;;;6.54;82.53;103524.00;5090583;28;20023;-72
2022/01/23 12:44:07;;;;;;;52.72;33.92;;;;;;;6.50;83.41;103524.66;5086500;28;20042;-72
2022/01/23 12:46:41;;;;;;;47.42;32.42;;;;;;;6.49;83.92;103518.53;5066916;28;20061;-72
2022/01/23 12:49:16;;;;;;;131.70;76.55;;;;;;;6.37;83.26;103516.25;5090462;28;20055;-72
2022/01/23 12:51:42;;;;;;;47.38;31.92;;;;;;;6.30;83.41;103521.09;5074423;28;20480;-72
2022/01/23 12:54:14;;;;;;;49.95;33.45;;;;;;;6.33;83.69;103524.72;5069884;28;20027;-72
2022/01/23 12:56:47;;;;;;;53.67;33.92;;;;;;;6.29;83.98;103514.09;5074916;28;20036;-72
2022/01/23 12:59:23;;;;;;;48.47;33.05;;;;;;;6.35;84.16;103514.38;5072231;28;20024;-76
2022/01/23 13:01:54;;;;;;;47.38;32.05;;;;;;;6.37;83.72;103512.75;5070334;28;20081;-76
2022/01/23 13:04:20;;;;;;;49.15;33.30;;;;;;;6.37;83.45;103517.97;5058601;28;20078;-76
2022/01/23 13:06:58;;;;;;;45.63;33.88;;;;;;;6.35;83.67;103501.34;5051081;28;20494;-76
2022/01/23 13:11:56;;;;;;;49.85;33.13;;;;;;;6.33;84.32;103498.69;5085838;28;20028;-75
2022/01/23 13:14:27;;;;;;;45.88;33.17;;;;;;;6.35;83.25;103502.25;5066306;28;20043;-75
2022/01/23 13:31:06;;;;;;;49.50;33.88;;;;;;;6.12;83.84;103501.16;5016759;28;20045;-75
2022/01/23 13:33:32;;;;;;;48.88;31.70;;;;;;;6.15;84.76;103501.28;5068551;28;20562;-75
2022/01/23 13:36:01;;;;;;;45.60;31.38;;;;;;;6.17;84.02;103498.75;5068711;28;20044;-75
2022/01/23 13:38:26;;;;;;;46.65;32.25;;;;;;;6.18;84.59;103488.41;5074438;28;20058;-75
2022/01/23 13:41:05;;;;;;;48.15;32.60;;;;;;;6.14;83.89;103499.50;5064888;28;20468;-71
2022/01/23 13:59:57;;;;;;;46.70;30.50;;;;;;;6.06;84.44;103490.41;5078053;28;20075;-75
2022/01/23 14:02:26;;;;;;;50.42;29.70;;;;;;;6.08;84.07;103483.59;5083540;28;20067;-75
2022/01/23 14:05:03;;;;;;;55.60;31.63;;;;;;;6.10;83.98;103483.66;5082407;28;20056;-75
2022/01/23 14:07:29;;;;;;;75.22;38.63;;;;;;;6.11;84.19;103478.53;5083373;28;20028;-75
2022/01/23 14:10:07;;;;;;;62.38;36.00;;;;;;;6.08;84.08;103480.97;5065518;28;20424;-75
2022/01/23 14:12:33;;;;;;;48.75;32.13;;;;;;;6.09;83.63;103474.94;5083007;28;20102;-75
2022/01/23 14:15:05;;;;;;;47.05;31.20;;;;;;;6.07;83.68;103471.38;5066883;28;20414;-75
2022/01/23 14:17:36;;;;;;;97.63;51.33;;;;;;;6.07;84.62;103467.03;5083520;28;20035;-75
2022/01/23 14:20:16;;;;;;;65.03;36.67;;;;;;;6.14;84.79;103468.25;5063278;28;20036;-75
2022/01/23 14:22:44;;;;;;;48.20;29.25;;;;;;;6.15;84.77;103472.66;5084510;28;20368;-74
2022/01/23 14:25:24;;;;;;;54.92;34.50;;;;;;;6.15;84.13;103475.25;5085483;28;20035;-75
2022/01/23 14:28:01;;;;;;;52.40;34.25;;;;;;;6.17;84.20;103477.94;5078273;28;20041;-75
2022/01/23 14:30:30;;;;;;;50.90;32.45;;;;;;;6.15;84.13;103480.47;5083775;28;20058;-75
2022/01/23 14:33:05;;;;;;;47.03;32.22;;;;;;;6.14;83.85;103475.19;5087279;28;20071;-75
2022/01/23 14:35:32;;;;;;;46.13;31.63;;;;;;;6.11;83.84;103488.06;5087999;28;20141;-75
2022/01/23 14:38:10;;;;;;;48.28;32.78;;;;;;;6.10;84.15;103487.13;5080352;28;20180;-75
2022/01/23 14:40:36;;;;;;;48.30;31.00;;;;;;;6.08;84.20;103494.00;5079698;28;20391;-74
2022/01/23 14:43:04;;;;;;;45.58;30.88;;;;;;;6.07;83.88;103487.00;5085146;28;20066;-75
2022/01/23 14:45:38;;;;;;;54.88;34.28;;;;;;;6.06;84.50;103495.59;5083217;28;20039;-75
2022/01/23 14:48:09;;;;;;;57.10;34.38;;;;;;;6.02;83.86;103491.06;5085205;28;20067;-74
2022/01/23 14:50:40;;;;;;;47.70;30.58;;;;;;;6.02;83.85;103493.66;5084625;28;20028;-74
2022/01/23 14:53:16;;;;;;;62.42;35.00;;;;;;;5.99;84.04;103490.91;5081614;28;20031;-74
2022/01/23 14:55:49;;;;;;;50.85;34.40;;;;;;;5.95;83.88;103489.84;5080892;28;20078;-74
2022/01/23 14:58:20;;;;;;;51.08;32.78;;;;;;;5.94;84.10;103489.78;5084295;28;20024;-74
2022/01/23 15:00:48;;;;;;;134.90;71.07;;;;;;;5.93;84.38;103488.88;5087510;28;20032;-74
2022/01/23 15:03:13;;;;;;;62.33;38.75;;;;;;;5.90;84.08;103494.84;5065790;28;20024;-74